createdAt,value
2019-05-14T00:01:57.892Z,102627.94
2019-05-14T00:04:07.248Z,102624.02
2019-05-14T00:06:13.783Z,102621.38
2019-05-14T00:08:22.198Z,102622.67
2019-05-14T00:10:28.763Z,102621.80
2019-05-14T00:12:35.432Z,102617.88
2019-05-14T00:14:43.953Z,102620.03
2019-05-14T00:16:51.374Z,102614.73
2019-05-14T00:19:02.697Z,102620.84
2019-05-14T00:21:11.990Z,102623.41
2019-05-14T00:23:17.475Z,102620.37
2019-05-14T00:25:25.790Z,102622.56
2019-05-14T00:27:32.135Z,102619.07
2019-05-14T00:29:38.630Z,102620.34
2019-05-14T00:31:45.186Z,102613.77
2019-05-14T00:33:54.509Z,102611.09
2019-05-14T00:36:02.195Z,102614.97
2019-05-14T00:38:08.555Z,102614.89
2019-05-14T00:40:15.346Z,102618.69
2019-05-14T00:42:23.238Z,102612.58
2019-05-14T00:44:32.140Z,102613.85
2019-05-14T00:46:40.963Z,102611.20
2019-05-14T00:48:48.684Z,102612.42
2019-05-14T00:50:55.153Z,102610.53
2019-05-14T00:53:01.871Z,102613.47
2019-05-14T00:55:11.715Z,102612.92
2019-05-14T00:57:18.462Z,102611.10
2019-05-14T00:59:25.304Z,102609.76
2019-05-14T01:01:31.964Z,102606.64
2019-05-14T01:03:38.347Z,102609.20
2019-05-14T01:05:44.696Z,102610.94
2019-05-14T01:07:53.019Z,102609.67
2019-05-14T01:10:01.176Z,102610.13
2019-05-14T01:12:07.149Z,102603.52
2019-05-14T01:14:13.434Z,102599.09
2019-05-14T01:16:19.694Z,102601.14
2019-05-14T01:18:27.167Z,102595.84
2019-05-14T01:20:35.270Z,102587.93
2019-05-14T01:22:42.270Z,102591.34
2019-05-14T01:24:48.833Z,102591.38
2019-05-14T01:26:55.388Z,102590.50
2019-05-14T01:29:01.862Z,102587.01
2019-05-14T01:31:11.358Z,102587.37
2019-05-14T01:33:18.564Z,102581.23
2019-05-14T01:35:25.293Z,102576.85
2019-05-14T01:37:31.615Z,102576.38
2019-05-14T01:39:38.179Z,102570.70
2019-05-14T01:41:46.066Z,102574.14
2019-05-14T01:43:52.344Z,102572.84
2019-05-14T01:45:58.701Z,102568.09
2019-05-14T01:48:05.171Z,102568.56
2019-05-14T01:50:12.450Z,102570.34
2019-05-14T01:52:18.817Z,102570.80
2019-05-14T01:54:25.173Z,102566.05
2019-05-14T01:56:32.021Z,102566.42
2019-05-14T01:58:41.704Z,102569.49
2019-05-14T02:00:52.222Z,102569.49
2019-05-14T02:02:58.790Z,102563.87
2019-05-14T02:05:07.710Z,102561.36
2019-05-14T02:07:16.138Z,102560.09
2019-05-14T02:09:23.140Z,102556.30
2019-05-14T02:11:31.863Z,102555.47
2019-05-14T02:13:37.376Z,102548.11
2019-05-14T02:15:45.073Z,102559.47
2019-05-14T02:17:52.849Z,102556.44
2019-05-14T02:19:59.343Z,102551.69
2019-05-14T02:22:06.283Z,102553.84
2019-05-14T02:24:12.711Z,102550.38
2019-05-14T02:26:19.242Z,102555.09
2019-05-14T02:28:25.620Z,102554.63
2019-05-14T02:30:45.106Z,102551.52
2019-05-14T02:32:40.888Z,102548.03
2019-05-14T02:34:50.045Z,102551.05
2019-05-14T02:36:55.451Z,102553.20
2019-05-14T02:39:02.142Z,102554.08
2019-05-14T02:41:09.915Z,102545.83
2019-05-14T02:43:20.260Z,102543.65
2019-05-14T02:45:31.167Z,102541.97
2019-05-14T02:47:42.748Z,102541.13
2019-05-14T02:49:53.717Z,102536.80
2019-05-14T02:52:00.050Z,102536.84
2019-05-14T02:54:09.652Z,102540.38
2019-05-14T02:56:34.259Z,102536.42
2019-05-14T02:58:40.663Z,102531.29
2019-05-14T03:00:55.421Z,102535.63
2019-05-14T03:03:01.771Z,102535.58
2019-05-14T03:05:09.845Z,102533.44
2019-05-14T03:07:19.758Z,102534.70
2019-05-14T03:09:29.352Z,102534.70
2019-05-14T03:11:40.820Z,102536.00
2019-05-14T03:13:50.593Z,102533.81
2019-05-14T03:15:59.444Z,102530.37
2019-05-14T03:18:09.053Z,102536.89
2019-05-14T03:20:15.101Z,102530.83
2019-05-14T03:22:39.413Z,102526.50
2019-05-14T03:24:35.822Z,102526.45
2019-05-14T03:26:49.678Z,102529.53
2019-05-14T03:28:54.993Z,102521.70
2019-05-14T03:31:03.375Z,102527.38
2019-05-14T03:33:13.460Z,102530.03
2019-05-14T03:35:24.523Z,102523.59
2019-05-14T03:37:30.774Z,102527.42
2019-05-14T03:39:34.898Z,102527.80
2019-05-14T03:41:42.913Z,102529.23
2019-05-14T03:43:49.762Z,102524.48
2019-05-14T03:45:59.020Z,102524.06
2019-05-14T03:48:04.337Z,102524.48
2019-05-14T03:50:11.195Z,102528.01
2019-05-14T03:52:19.898Z,102528.39
2019-05-14T03:54:25.772Z,102527.05
2019-05-14T03:56:33.691Z,102522.25
2019-05-14T03:58:40.372Z,102521.45
2019-05-14T04:01:00.353Z,102532.34
2019-05-14T04:03:09.474Z,102531.92
2019-05-14T04:05:18.774Z,102524.52
2019-05-14T04:07:24.373Z,102528.05
2019-05-14T04:09:34.146Z,102527.59
2019-05-14T04:11:43.325Z,102529.70
2019-05-14T04:13:53.263Z,102530.91
2019-05-14T04:16:03.280Z,102530.50
2019-05-14T04:18:13.352Z,102534.03
2019-05-14T04:20:19.881Z,102523.22
2019-05-14T04:22:29.782Z,102530.24
2019-05-14T04:24:41.361Z,102534.20
2019-05-14T04:27:02.635Z,102536.80
2019-05-14T04:29:01.458Z,102531.16
2019-05-14T04:31:09.806Z,102526.91
2019-05-14T04:33:20.224Z,102533.89
2019-05-14T04:35:29.620Z,102533.89
2019-05-14T04:37:39.634Z,102529.64
2019-05-14T04:39:44.655Z,102535.81
2019-05-14T04:41:51.113Z,102533.31
2019-05-14T04:43:59.470Z,102531.55
2019-05-14T04:46:10.553Z,102530.75
2019-05-14T04:48:28.992Z,102528.14
2019-05-14T04:50:25.674Z,102526.44
2019-05-14T04:52:32.339Z,102531.73
2019-05-14T04:54:39.508Z,102530.89
2019-05-14T04:56:46.260Z,102525.24
2019-05-14T04:58:52.762Z,102521.36
2019-05-14T05:01:00.668Z,102519.24
2019-05-14T05:03:11.752Z,102519.73
2019-05-14T05:05:19.666Z,102522.84
2019-05-14T05:07:25.198Z,102525.55
2019-05-14T05:09:32.902Z,102523.84
2019-05-14T05:11:41.120Z,102522.60
2019-05-14T05:13:48.711Z,102520.38
2019-05-14T05:15:55.233Z,102520.36
2019-05-14T05:18:01.673Z,102522.05
2019-05-14T05:20:10.260Z,102517.71
2019-05-14T05:22:19.437Z,102516.83
2019-05-14T05:24:25.239Z,102523.39
2019-05-14T05:26:33.077Z,102530.80
2019-05-14T05:28:39.547Z,102520.35
2019-05-14T05:30:46.023Z,102526.00
2019-05-14T05:32:53.745Z,102520.81
2019-05-14T05:35:00.069Z,102522.51
2019-05-14T05:37:08.590Z,102523.55
2019-05-14T05:39:18.964Z,102520.45
2019-05-14T05:41:25.095Z,102519.17
2019-05-14T05:43:31.657Z,102524.94
2019-05-14T05:45:38.175Z,102511.45
2019-05-14T05:47:55.307Z,102521.08
2019-05-14T05:49:52.892Z,102524.12
2019-05-14T05:51:59.385Z,102524.94
2019-05-14T05:54:05.833Z,102528.41
2019-05-14T05:56:12.282Z,102527.61
2019-05-14T05:58:19.697Z,102529.80
2019-05-14T06:00:40.861Z,102528.92
2019-05-14T06:02:48.944Z,102531.91
2019-05-14T06:04:55.770Z,102527.49
2019-05-14T06:07:02.819Z,102533.59
2019-05-14T06:09:09.871Z,102532.38
2019-05-14T06:11:19.134Z,102535.05
2019-05-14T06:13:24.498Z,102535.05
2019-05-14T06:15:44.447Z,102534.57
2019-05-14T06:17:40.304Z,102543.38
2019-05-14T06:19:48.662Z,102534.31
2019-05-14T06:21:54.562Z,102534.91
2019-05-14T06:24:03.063Z,102536.25
2019-05-14T06:26:11.527Z,102534.02
2019-05-14T06:28:20.558Z,102537.00
2019-05-14T06:30:39.497Z,102543.47
2019-05-14T06:32:48.756Z,102544.26
2019-05-14T06:34:56.049Z,102543.38
2019-05-14T06:37:02.454Z,102539.52
2019-05-14T06:39:10.115Z,102539.16
2019-05-14T06:41:19.124Z,102534.31
2019-05-14T06:43:28.495Z,102537.75
2019-05-14T06:45:34.039Z,102541.22
2019-05-14T06:47:41.020Z,102543.83
2019-05-14T06:49:48.789Z,102538.15
2019-05-14T06:51:55.769Z,102538.95
2019-05-14T06:54:03.172Z,102542.52
2019-05-14T06:56:11.160Z,102545.99
2019-05-14T06:58:20.203Z,102543.55
2019-05-14T07:00:28.409Z,102544.08
2019-05-14T07:02:35.654Z,102544.00
2019-05-14T07:04:41.942Z,102544.45
2019-05-14T07:06:49.603Z,102548.80
2019-05-14T07:08:55.894Z,102547.49
2019-05-14T07:11:02.275Z,102547.86
2019-05-14T07:13:10.454Z,102554.45
2019-05-14T07:15:18.366Z,102550.84
2019-05-14T07:17:24.927Z,102544.34
2019-05-14T07:19:31.311Z,102548.58
2019-05-14T07:21:38.310Z,102546.27
2019-05-14T07:23:45.232Z,102548.45
2019-05-14T07:25:51.855Z,102551.89
2019-05-14T07:27:58.605Z,102544.51
2019-05-14T07:30:10.974Z,102551.58
2019-05-14T07:32:21.558Z,102553.46
2019-05-14T07:34:29.171Z,102551.01
2019-05-14T07:36:38.517Z,102549.72
2019-05-14T07:38:44.242Z,102563.33
2019-05-14T07:40:50.865Z,102554.53
2019-05-14T07:42:58.300Z,102552.31
2019-05-14T07:45:09.356Z,102554.33
2019-05-14T07:47:18.663Z,102550.11
2019-05-14T07:49:24.633Z,102546.62
2019-05-14T07:51:31.385Z,102554.11
2019-05-14T07:53:41.570Z,102549.80
2019-05-14T07:55:49.056Z,102547.94
2019-05-14T07:57:55.135Z,102541.37
2019-05-14T08:00:03.476Z,102545.78
2019-05-14T08:02:12.730Z,102537.91
2019-05-14T08:04:19.993Z,102547.58
2019-05-14T08:06:28.168Z,102548.54
2019-05-14T08:08:35.108Z,102549.44
2019-05-14T08:10:41.909Z,102538.11
2019-05-14T08:12:48.689Z,102540.31
2019-05-14T08:15:14.068Z,102534.30
2019-05-14T08:17:08.461Z,102548.25
2019-05-14T08:19:24.165Z,102544.32
2019-05-14T08:21:23.034Z,102537.78
2019-05-14T08:23:31.871Z,102536.95
2019-05-14T08:25:39.585Z,102543.89
2019-05-14T08:27:48.305Z,102550.94
2019-05-14T08:29:55.284Z,102550.55
2019-05-14T08:32:01.907Z,102551.01
2019-05-14T08:34:09.342Z,102539.23
2019-05-14T08:36:18.420Z,102541.38
2019-05-14T08:38:28.483Z,102550.58
2019-05-14T08:40:37.837Z,102551.02
2019-05-14T08:42:43.553Z,102530.90
2019-05-14T08:44:51.434Z,102537.89
2019-05-14T08:46:59.407Z,102533.51
2019-05-14T08:49:08.884Z,102536.16
2019-05-14T08:51:15.236Z,102538.83
2019-05-14T08:53:23.382Z,102539.72
2019-05-14T08:55:31.014Z,102538.84
2019-05-14T08:57:38.683Z,102545.77
2019-05-14T08:59:48.662Z,102546.69
2019-05-14T09:02:05.226Z,102541.87
2019-05-14T09:04:03.789Z,102540.20
2019-05-14T09:06:10.548Z,102548.08
2019-05-14T09:08:20.195Z,102550.68
2019-05-14T09:10:29.449Z,102551.09
2019-05-14T09:12:39.023Z,102548.02
2019-05-14T09:14:48.311Z,102549.80
2019-05-14T09:16:55.398Z,102540.20
2019-05-14T09:19:03.485Z,102545.94
2019-05-14T09:21:10.369Z,102534.15
2019-05-14T09:23:18.963Z,102546.80
2019-05-14T09:25:26.411Z,102541.12
2019-05-14T09:27:32.878Z,102536.75
2019-05-14T09:29:39.654Z,102536.74
2019-05-14T09:31:49.460Z,102548.52
2019-05-14T09:33:58.461Z,102527.14
2019-05-14T09:36:17.983Z,102537.65
2019-05-14T09:38:18.919Z,102537.65
2019-05-14T09:40:28.869Z,102534.98
2019-05-14T09:42:35.567Z,102530.64
2019-05-14T09:44:42.573Z,102526.28
2019-05-14T09:46:50.021Z,102524.95
2019-05-14T09:48:58.856Z,102528.04
2019-05-14T09:51:05.121Z,102530.64
2019-05-14T09:53:12.107Z,102517.09
2019-05-14T09:55:19.991Z,102518.84
2019-05-14T09:57:28.289Z,102521.87
2019-05-14T09:59:41.814Z,102505.25
2019-05-14T10:01:50.859Z,102508.75
2019-05-14T10:03:59.185Z,102507.38
2019-05-14T10:06:09.445Z,102509.58
2019-05-14T10:08:14.806Z,102516.20
2019-05-14T10:10:21.633Z,102512.14
2019-05-14T10:12:30.666Z,102501.05
2019-05-14T10:14:39.597Z,102504.91
2019-05-14T10:16:48.880Z,102512.13
2019-05-14T10:18:55.799Z,102515.53
2019-05-14T10:21:03.251Z,102508.44
2019-05-14T10:23:10.278Z,102500.46
2019-05-14T10:25:18.209Z,102499.30
2019-05-14T10:27:28.279Z,102501.66
2019-05-14T10:29:34.232Z,102503.98
2019-05-14T10:31:42.542Z,102502.58
2019-05-14T10:33:50.133Z,102510.40
2019-05-14T10:35:58.811Z,102528.58
2019-05-14T10:38:08.582Z,102514.69
2019-05-14T10:40:14.333Z,102508.58
2019-05-14T10:42:21.352Z,102508.52
2019-05-14T10:44:29.297Z,102508.13
2019-05-14T10:46:38.473Z,102497.62
2019-05-14T10:48:48.928Z,102501.55
2019-05-14T10:50:59.932Z,102488.88
2019-05-14T10:53:04.574Z,102500.30
2019-05-14T10:55:11.716Z,102501.95
2019-05-14T10:57:18.413Z,102495.03
2019-05-14T10:59:25.073Z,102502.11
2019-05-14T11:01:31.992Z,102494.61
2019-05-14T11:03:39.007Z,102497.61
2019-05-14T11:05:48.823Z,102502.80
2019-05-14T11:07:55.405Z,102506.33
2019-05-14T11:10:02.156Z,102504.31
2019-05-14T11:12:09.189Z,102494.69
2019-05-14T11:14:19.049Z,102496.44
2019-05-14T11:16:28.234Z,102489.88
2019-05-14T11:18:34.702Z,102476.57
2019-05-14T11:20:42.733Z,102472.19
2019-05-14T11:22:49.318Z,102478.17
2019-05-14T11:24:59.107Z,102477.70
2019-05-14T11:27:05.592Z,102469.48
2019-05-14T11:29:12.327Z,102493.19
2019-05-14T11:31:20.325Z,102461.33
2019-05-14T11:33:29.507Z,102470.87
2019-05-14T11:35:36.060Z,102478.71
2019-05-14T11:37:42.732Z,102463.81
2019-05-14T11:39:49.264Z,102453.20
2019-05-14T11:41:55.890Z,102462.75
2019-05-14T11:44:02.745Z,102473.35
2019-05-14T11:46:09.591Z,102458.06
2019-05-14T11:48:19.275Z,102456.30
2019-05-14T11:50:28.647Z,102457.36
2019-05-14T11:52:35.742Z,102456.95
2019-05-14T11:54:43.721Z,102442.17
2019-05-14T11:56:50.650Z,102449.96
2019-05-14T11:58:59.149Z,102439.39
2019-05-14T12:01:09.219Z,102450.76
2019-05-14T12:03:19.653Z,102437.25
2019-05-14T12:05:26.337Z,102456.56
2019-05-14T12:07:34.521Z,102466.28
2019-05-14T12:09:41.297Z,102451.91
2019-05-14T12:11:48.177Z,102444.46
2019-05-14T12:13:55.180Z,102453.15
2019-05-14T12:16:02.157Z,102440.99
2019-05-14T12:18:10.554Z,102446.13
2019-05-14T12:20:20.240Z,102439.17
2019-05-14T12:22:28.658Z,102440.88
2019-05-14T12:24:35.542Z,102433.33
2019-05-14T12:26:43.767Z,102432.09
2019-05-14T12:28:50.111Z,102435.58
2019-05-14T12:30:58.386Z,102435.88
2019-05-14T12:33:06.422Z,102440.84
2019-05-14T12:35:13.317Z,102432.27
2019-05-14T12:37:20.104Z,102433.77
2019-05-14T12:39:29.371Z,102420.23
2019-05-14T12:41:38.232Z,102402.79
2019-05-14T12:43:45.015Z,102421.30
2019-05-14T12:45:51.824Z,102416.03
2019-05-14T12:47:58.645Z,102410.08
2019-05-14T12:50:09.893Z,102396.59
2019-05-14T12:52:24.794Z,102401.56
2019-05-14T12:54:29.722Z,102402.28
2019-05-14T12:56:35.271Z,102403.32
2019-05-14T12:58:45.700Z,102404.23
2019-05-14T13:00:50.502Z,102411.43
2019-05-14T13:02:58.623Z,102383.80
2019-05-14T13:05:08.914Z,102400.32
2019-05-14T13:07:19.060Z,102390.12
2019-05-14T13:09:25.956Z,102382.08
2019-05-14T13:11:34.474Z,102380.66
2019-05-14T13:13:43.198Z,102368.52
2019-05-14T13:15:51.189Z,102388.15
2019-05-14T13:17:58.227Z,102393.55
2019-05-14T13:20:13.158Z,102377.98
2019-05-14T13:22:19.078Z,102378.56
2019-05-14T13:24:24.612Z,102378.05
2019-05-14T13:26:32.756Z,102382.05
2019-05-14T13:28:40.239Z,102377.22
2019-05-14T13:30:48.930Z,102375.16
2019-05-14T13:32:55.866Z,102371.59
2019-05-14T13:35:13.546Z,102368.08
2019-05-14T13:37:19.226Z,102374.59
2019-05-14T13:39:28.318Z,102369.16
2019-05-14T13:41:34.588Z,102359.81
2019-05-14T13:43:41.143Z,102366.21
2019-05-14T13:45:49.369Z,102358.94
2019-05-14T13:47:58.928Z,102367.73
2019-05-14T13:50:08.287Z,102362.70
2019-05-14T13:52:14.916Z,102366.21
2019-05-14T13:54:23.352Z,102364.73
2019-05-14T13:56:33.994Z,102357.19
2019-05-14T13:58:40.793Z,102356.81
2019-05-14T14:00:51.936Z,102362.37
2019-05-14T14:03:00.877Z,102351.81
2019-05-14T14:05:11.153Z,102353.17
2019-05-14T14:07:18.951Z,102344.67
2019-05-14T14:09:28.308Z,102353.21
2019-05-14T14:11:38.373Z,102362.88
2019-05-14T14:13:45.787Z,102354.20
2019-05-14T14:15:53.867Z,102355.55
2019-05-14T14:18:02.501Z,102349.84
2019-05-14T14:20:11.555Z,102346.75
2019-05-14T14:22:19.565Z,102330.92
2019-05-14T14:24:29.067Z,102332.14
2019-05-14T14:26:39.343Z,102329.89
2019-05-14T14:28:45.177Z,102336.00
2019-05-14T14:30:52.449Z,102337.69
2019-05-14T14:32:59.605Z,102336.03
2019-05-14T14:35:08.707Z,102324.73
2019-05-14T14:37:15.853Z,102321.50
2019-05-14T14:39:23.398Z,102330.33
2019-05-14T14:41:30.251Z,102319.03
2019-05-14T14:43:42.423Z,102312.48
2019-05-14T14:45:47.615Z,102307.57
2019-05-14T14:47:54.197Z,102309.80
2019-05-14T14:50:02.321Z,102310.95
2019-05-14T14:52:12.153Z,102303.02
2019-05-14T14:54:18.690Z,102298.50
2019-05-14T14:56:25.475Z,102309.70
2019-05-14T14:58:32.241Z,102308.72
2019-05-14T15:00:41.713Z,102299.31
2019-05-14T15:02:49.583Z,102309.92
2019-05-14T15:04:59.605Z,102310.06
2019-05-14T15:07:09.177Z,102305.13
2019-05-14T15:09:16.489Z,102306.00
2019-05-14T15:11:23.390Z,102301.09
2019-05-14T15:13:30.285Z,102304.63
2019-05-14T15:15:39.348Z,102307.26
2019-05-14T15:17:49.163Z,102305.13
2019-05-14T15:20:00.217Z,102292.13
2019-05-14T15:22:08.828Z,102294.73
2019-05-14T15:24:16.059Z,102305.73
2019-05-14T15:26:23.687Z,102297.13
2019-05-14T15:28:30.341Z,102301.53
2019-05-14T15:30:39.671Z,102296.33
2019-05-14T15:32:50.985Z,102292.02
2019-05-14T15:34:54.189Z,102297.69
2019-05-14T15:37:01.468Z,102290.23
2019-05-14T15:39:10.669Z,102292.41
2019-05-14T15:41:20.093Z,102293.72
2019-05-14T15:43:28.437Z,102288.91
2019-05-14T15:45:34.534Z,102289.38
2019-05-14T15:47:41.458Z,102275.45
2019-05-14T15:49:49.396Z,102282.44
2019-05-14T15:51:57.013Z,102286.80
2019-05-14T15:54:16.271Z,102297.75
2019-05-14T15:56:18.117Z,102290.80
2019-05-14T15:58:24.264Z,102288.58
2019-05-14T16:00:31.259Z,102285.05
2019-05-14T16:02:39.624Z,102282.88
2019-05-14T16:04:46.902Z,102282.92
2019-05-14T16:06:53.693Z,102275.94
2019-05-14T16:09:00.673Z,102282.09
2019-05-14T16:11:11.529Z,102273.33
2019-05-14T16:13:20.885Z,102283.43
2019-05-14T16:15:28.035Z,102282.99
2019-05-14T16:17:35.047Z,102284.31
2019-05-14T16:19:41.872Z,102289.15
2019-05-14T16:21:48.678Z,102286.05
2019-05-14T16:23:58.839Z,102288.28
2019-05-14T16:26:08.910Z,102292.71
2019-05-14T16:28:16.007Z,102297.08
2019-05-14T16:30:22.922Z,102290.05
2019-05-14T16:32:30.107Z,102291.40
2019-05-14T16:34:40.777Z,102294.45
2019-05-14T16:36:48.802Z,102287.45
2019-05-14T16:38:58.285Z,102290.16
2019-05-14T16:41:04.781Z,102291.93
2019-05-14T16:43:11.214Z,102287.13
2019-05-14T16:45:18.722Z,102291.52
2019-05-14T16:47:28.059Z,102294.58
2019-05-14T16:49:34.528Z,102285.83
2019-05-14T16:51:41.620Z,102297.23
2019-05-14T16:53:48.992Z,102290.66
2019-05-14T16:55:58.139Z,102297.68
2019-05-14T16:58:04.944Z,102281.94
2019-05-14T17:00:12.439Z,102273.63
2019-05-14T17:02:19.342Z,102282.81
2019-05-14T17:04:29.362Z,102265.79
2019-05-14T17:06:38.706Z,102274.98
2019-05-14T17:08:45.637Z,102279.79
2019-05-14T17:10:52.398Z,102274.52
2019-05-14T17:13:01.836Z,102273.23
2019-05-14T17:15:09.632Z,102274.09
2019-05-14T17:17:20.150Z,102280.66
2019-05-14T17:19:26.571Z,102279.38
2019-05-14T17:21:33.867Z,102280.67
2019-05-14T17:23:40.705Z,102283.74
2019-05-14T17:25:48.521Z,102288.54
2019-05-14T17:27:59.403Z,102285.95
2019-05-14T17:30:08.892Z,102279.40
2019-05-14T17:32:18.578Z,102287.67
2019-05-14T17:34:25.726Z,102287.69
2019-05-14T17:36:32.573Z,102282.91
2019-05-14T17:38:39.908Z,102273.30
2019-05-14T17:40:48.831Z,102279.40
2019-05-14T17:42:55.712Z,102275.48
2019-05-14T17:45:02.766Z,102261.52
2019-05-14T17:47:11.257Z,102266.77
2019-05-14T17:49:19.138Z,102270.69
2019-05-14T17:51:28.408Z,102268.06
2019-05-14T17:53:38.375Z,102252.36
2019-05-14T17:55:48.238Z,102268.95
2019-05-14T17:57:59.013Z,102278.98
2019-05-14T18:00:09.497Z,102271.57
2019-05-14T18:02:19.127Z,102261.98
2019-05-14T18:04:28.185Z,102265.02
2019-05-14T18:06:35.355Z,102268.97
2019-05-14T18:08:42.320Z,102272.91
2019-05-14T18:10:50.612Z,102269.39
2019-05-14T18:12:59.784Z,102268.52
2019-05-14T18:15:08.602Z,102272.45
2019-05-14T18:17:18.138Z,102270.27
2019-05-14T18:19:25.299Z,102271.16
2019-05-14T18:21:32.297Z,102268.54
2019-05-14T18:23:41.959Z,102269.86
2019-05-14T18:26:03.991Z,102263.73
2019-05-14T18:27:58.220Z,102271.17
2019-05-14T18:30:09.622Z,102272.48
2019-05-14T18:32:19.049Z,102270.72
2019-05-14T18:34:28.385Z,102274.66
2019-05-14T18:36:39.498Z,102273.77
2019-05-14T18:38:49.515Z,102274.23
2019-05-14T18:40:58.617Z,102282.52
2019-05-14T18:43:08.612Z,102283.36
2019-05-14T18:45:16.091Z,102275.08
2019-05-14T18:47:23.363Z,102270.73
2019-05-14T18:49:30.318Z,102272.91
2019-05-14T18:51:39.332Z,102277.70
2019-05-14T18:53:48.927Z,102271.58
2019-05-14T18:55:55.964Z,102270.27
2019-05-14T18:58:03.412Z,102272.03
2019-05-14T19:00:11.558Z,102267.22
2019-05-14T19:02:18.850Z,102270.28
2019-05-14T19:04:27.959Z,102272.89
2019-05-14T19:06:35.294Z,102270.27
2019-05-14T19:08:42.042Z,102272.01
2019-05-14T19:10:50.757Z,102271.59
2019-05-14T19:12:58.847Z,102265.48
2019-05-14T19:15:08.687Z,102268.98
2019-05-14T19:17:18.663Z,102270.27
2019-05-14T19:19:25.802Z,102273.75
2019-05-14T19:21:32.816Z,102275.48
2019-05-14T19:23:40.460Z,102283.35
2019-05-14T19:25:48.445Z,102275.93
2019-05-14T19:27:58.245Z,102271.98
2019-05-14T19:30:05.285Z,102276.36
2019-05-14T19:32:12.179Z,102274.99
2019-05-14T19:34:19.321Z,102264.95
2019-05-14T19:36:28.862Z,102271.02
2019-05-14T19:38:38.859Z,102271.39
2019-05-14T19:40:48.242Z,102261.78
2019-05-14T19:42:54.931Z,102259.13
2019-05-14T19:45:03.630Z,102259.54
2019-05-14T19:47:11.132Z,102256.48
2019-05-14T19:49:19.367Z,102252.10
2019-05-14T19:51:27.945Z,102250.78
2019-05-14T19:53:38.992Z,102250.36
2019-05-14T19:55:45.509Z,102248.61
2019-05-14T19:57:52.876Z,102255.57
2019-05-14T20:00:00.102Z,102253.84
2019-05-14T20:02:09.348Z,102259.94
2019-05-14T20:04:18.109Z,102256.87
2019-05-14T20:06:24.345Z,102255.13
2019-05-14T20:08:31.356Z,102249.91
2019-05-14T20:10:38.925Z,102252.54
2019-05-14T20:12:48.271Z,102239.02
2019-05-14T20:14:55.418Z,102241.19
2019-05-14T20:17:02.344Z,102245.53
2019-05-14T20:19:10.826Z,102245.12
2019-05-14T20:21:18.317Z,102249.05
2019-05-14T20:23:28.943Z,102242.52
2019-05-14T20:25:38.583Z,102240.78
2019-05-14T20:27:45.349Z,102237.27
2019-05-14T20:29:52.064Z,102236.39
2019-05-14T20:32:01.822Z,102239.02
2019-05-14T20:34:08.928Z,102233.80
2019-05-14T20:36:15.508Z,102230.73
2019-05-14T20:38:24.686Z,102235.98
2019-05-14T20:40:32.732Z,102225.95
2019-05-14T20:42:40.263Z,102226.41
2019-05-14T20:44:49.011Z,102228.11
2019-05-14T20:46:55.306Z,102230.75
2019-05-14T20:49:02.088Z,102218.10
2019-05-14T20:51:09.619Z,102222.03
2019-05-14T20:53:18.610Z,102212.88
2019-05-14T20:55:28.364Z,102211.58
2019-05-14T20:57:34.106Z,102209.40
2019-05-14T20:59:41.066Z,102197.19
2019-05-14T21:01:48.136Z,102201.98
2019-05-14T21:03:54.896Z,102189.81
2019-05-14T21:06:01.561Z,102197.62
2019-05-14T21:08:13.546Z,102194.14
2019-05-14T21:10:19.407Z,102197.65
2019-05-14T21:12:28.618Z,102198.51
2019-05-14T21:14:35.847Z,102199.80
2019-05-14T21:16:48.828Z,102196.76
2019-05-14T21:18:59.071Z,102200.69
2019-05-14T21:21:04.899Z,102192.84
2019-05-14T21:23:13.296Z,102194.59
2019-05-14T21:25:24.123Z,102187.61
2019-05-14T21:27:44.411Z,102187.62
2019-05-14T21:29:45.916Z,102180.20
2019-05-14T21:31:54.205Z,102172.82
2019-05-14T21:34:02.582Z,102172.37
2019-05-14T21:36:16.066Z,102170.20
2019-05-14T21:38:24.557Z,102168.87
2019-05-14T21:40:39.027Z,102166.70
2019-05-14T21:42:50.274Z,102172.36
2019-05-14T21:44:58.518Z,102171.05
2019-05-14T21:47:08.416Z,102173.23
2019-05-14T21:49:18.891Z,102162.78
2019-05-14T21:51:25.070Z,102158.42
2019-05-14T21:53:31.701Z,102164.53
2019-05-14T21:55:38.984Z,102164.09
2019-05-14T21:57:56.081Z,102172.81
2019-05-14T21:59:55.606Z,102168.03
2019-05-14T22:02:02.436Z,102163.67
2019-05-14T22:04:11.596Z,102155.84
2019-05-14T22:06:20.647Z,102160.61
2019-05-14T22:08:31.622Z,102154.52
2019-05-14T22:10:39.906Z,102155.37
2019-05-14T22:12:48.767Z,102158.45
2019-05-14T22:14:55.583Z,102158.86
2019-05-14T22:17:07.885Z,102155.37
2019-05-14T22:19:15.784Z,102159.30
2019-05-14T22:21:22.514Z,102145.36
2019-05-14T22:23:29.308Z,102141.86
2019-05-14T22:25:36.091Z,102137.95
2019-05-14T22:27:42.865Z,102132.27
2019-05-14T22:29:50.982Z,102140.54
2019-05-14T22:31:58.723Z,102131.84
2019-05-14T22:34:05.562Z,102138.78
2019-05-14T22:36:12.656Z,102135.30
2019-05-14T22:38:20.973Z,102133.97
2019-05-14T22:40:29.185Z,102128.73
2019-05-14T22:42:40.074Z,102126.97
2019-05-14T22:44:50.163Z,102126.08
2019-05-14T22:46:55.734Z,102130.00
2019-05-14T22:49:02.378Z,102129.13
2019-05-14T22:51:09.174Z,102128.67
2019-05-14T22:53:18.614Z,102128.66
2019-05-14T22:55:29.018Z,102122.56
2019-05-14T22:57:39.196Z,102126.02
2019-05-14T22:59:49.434Z,102120.78
2019-05-14T23:01:58.839Z,102119.45
2019-05-14T23:04:08.977Z,102120.73
2019-05-14T23:06:15.824Z,102122.91
2019-05-14T23:08:22.344Z,102124.20
2019-05-14T23:10:28.923Z,102124.19
2019-05-14T23:12:39.702Z,102115.91
2019-05-14T23:14:48.691Z,102118.94
2019-05-14T23:16:59.521Z,102127.23
2019-05-14T23:19:07.993Z,102115.89
2019-05-14T23:21:19.559Z,102120.24
2019-05-14T23:23:28.193Z,102117.17
2019-05-14T23:25:34.673Z,102119.73
2019-05-14T23:27:41.370Z,102122.78
2019-05-14T23:29:49.248Z,102111.46
2019-05-14T23:31:56.004Z,102104.50
2019-05-14T23:34:02.768Z,102105.38
2019-05-14T23:36:09.641Z,102103.62
2019-05-14T23:38:19.107Z,102098.83
2019-05-14T23:40:25.685Z,102094.00
2019-05-14T23:42:32.202Z,102098.34
2019-05-14T23:44:40.117Z,102095.28
2019-05-14T23:46:48.258Z,102093.92
2019-05-14T23:48:55.105Z,102098.73
2019-05-14T23:51:03.117Z,102095.20
2019-05-14T23:53:11.189Z,102092.13
2019-05-14T23:55:18.063Z,102087.32
2019-05-14T23:57:30.251Z,102091.19
2019-05-14T23:59:39.466Z,102089.45
